createdAt,value
2022-12-06T00:01:14.602Z,4.75
2022-12-06T00:04:16.973Z,4.75
2022-12-06T00:07:18.545Z,4.66
2022-12-06T00:10:20.139Z,4.53
2022-12-06T00:13:21.798Z,4.49
2022-12-06T00:16:24.217Z,4.42
2022-12-06T00:19:25.995Z,4.11
2022-12-06T00:22:27.638Z,4.21
2022-12-06T00:25:29.316Z,4.13
2022-12-06T00:28:31.009Z,4.15
2022-12-06T00:31:34.535Z,4.11
2022-12-06T00:34:36.196Z,3.99
2022-12-06T00:37:37.765Z,4.00
2022-12-06T00:40:39.607Z,4.00
2022-12-06T00:43:41.868Z,3.89
2022-12-06T00:46:43.489Z,3.60
2022-12-06T00:49:45.006Z,3.65
2022-12-06T00:52:46.872Z,3.51
2022-12-06T00:55:48.988Z,3.52
2022-12-06T00:58:50.549Z,3.48
2022-12-06T01:01:52.157Z,3.51
2022-12-06T01:04:53.755Z,3.55
2022-12-06T01:07:55.954Z,3.45
2022-12-06T01:10:57.569Z,3.42
2022-12-06T01:13:59.821Z,3.50
2022-12-06T01:17:01.389Z,3.44
2022-12-06T01:20:04.497Z,3.52
2022-12-06T01:23:06.063Z,3.52
2022-12-06T01:26:08.141Z,3.53
2022-12-06T01:29:09.817Z,3.61
2022-12-06T01:32:11.374Z,3.59
2022-12-06T01:35:13.218Z,3.65
2022-12-06T01:38:15.028Z,3.52
2022-12-06T01:41:17.457Z,3.57
2022-12-06T01:44:45.475Z,3.52
2022-12-06T01:47:47.510Z,3.36
2022-12-06T01:50:49.387Z,3.25
2022-12-06T01:53:53.585Z,3.30
2022-12-06T01:56:56.973Z,3.34
2022-12-06T01:59:58.847Z,3.21
2022-12-06T02:03:02.768Z,3.38
2022-12-06T02:06:06.982Z,3.38
2022-12-06T02:09:11.179Z,3.22
2022-12-06T02:12:15.071Z,3.30
2022-12-06T02:15:16.816Z,3.33
2022-12-06T02:18:45.332Z,3.31
2022-12-06T02:22:07.647Z,3.18
2022-12-06T02:25:30.411Z,3.27
2022-12-06T02:28:56.330Z,3.41
2022-12-06T02:32:10.282Z,3.28
2022-12-06T02:35:18.403Z,3.39
2022-12-06T02:38:19.936Z,3.42
2022-12-06T02:41:27.115Z,3.57
2022-12-06T02:44:34.281Z,3.61
2022-12-06T02:47:38.611Z,3.57
2022-12-06T02:50:47.101Z,3.72
2022-12-06T02:53:52.944Z,3.75
2022-12-06T02:56:54.559Z,3.80
2022-12-06T02:59:56.390Z,3.83
2022-12-06T03:03:09.886Z,3.84
2022-12-06T03:06:23.484Z,3.85
2022-12-06T03:09:40.793Z,3.87
2022-12-06T03:13:01.174Z,3.83
2022-12-06T03:16:19.354Z,4.03
2022-12-06T03:19:24.624Z,3.98
2022-12-06T03:22:40.225Z,3.90
2022-12-06T03:25:43.888Z,4.08
2022-12-06T03:28:48.935Z,4.07
2022-12-06T03:31:53.108Z,4.22
2022-12-06T03:34:57.421Z,4.27
2022-12-06T03:38:06.508Z,4.15
2022-12-06T03:41:09.582Z,3.94
2022-12-06T03:44:11.459Z,4.23
2022-12-06T03:47:16.472Z,4.17
2022-12-06T03:50:32.648Z,4.00
2022-12-06T03:53:34.337Z,4.27
2022-12-06T03:56:37.876Z,4.30
2022-12-06T03:59:39.527Z,4.38
2022-12-06T04:02:41.226Z,4.38
2022-12-06T04:05:42.918Z,4.39
2022-12-06T04:08:44.644Z,4.50
2022-12-06T04:11:47.000Z,4.44
2022-12-06T04:14:48.588Z,4.36
2022-12-06T04:18:08.847Z,4.46
2022-12-06T04:21:29.121Z,4.42
2022-12-06T04:24:31.247Z,4.27
2022-12-06T04:27:51.614Z,4.32
2022-12-06T04:31:13.874Z,4.39
2022-12-06T04:34:37.801Z,4.29
2022-12-06T04:37:57.847Z,4.33
2022-12-06T04:40:59.578Z,4.31
2022-12-06T04:44:01.265Z,4.22
2022-12-06T04:47:03.348Z,4.28
2022-12-06T04:50:05.680Z,4.07
2022-12-06T04:53:07.341Z,3.92
2022-12-06T04:56:09.368Z,4.04
2022-12-06T04:59:11.202Z,4.02
2022-12-06T05:02:15.334Z,4.00
2022-12-06T05:05:16.927Z,4.04
2022-12-06T05:08:18.628Z,3.95
2022-12-06T05:11:20.546Z,4.19
2022-12-06T05:14:22.469Z,4.01
2022-12-06T05:17:24.154Z,4.12
2022-12-06T05:20:26.011Z,4.11
2022-12-06T05:23:27.722Z,4.03
2022-12-06T05:26:29.778Z,4.04
2022-12-06T05:29:31.425Z,4.18
2022-12-06T05:32:33.138Z,4.07
2022-12-06T05:35:34.838Z,3.99
2022-12-06T05:38:36.874Z,4.27
2022-12-06T05:41:38.583Z,4.23
2022-12-06T05:44:41.462Z,4.25
2022-12-06T05:47:43.103Z,4.28
2022-12-06T05:50:46.991Z,4.34
2022-12-06T05:53:48.623Z,4.32
2022-12-06T05:56:50.822Z,4.43
2022-12-06T05:59:52.673Z,4.55
2022-12-06T06:02:54.420Z,4.41
2022-12-06T06:05:58.682Z,4.48
2022-12-06T06:09:00.445Z,4.58
2022-12-06T06:12:02.023Z,4.47
2022-12-06T06:15:07.206Z,4.42
2022-12-06T06:18:08.874Z,4.28
2022-12-06T06:21:10.470Z,4.32
2022-12-06T06:24:12.128Z,4.26
2022-12-06T06:27:13.713Z,4.29
2022-12-06T06:30:15.504Z,4.24
2022-12-06T06:33:17.600Z,4.43
2022-12-06T06:36:19.297Z,4.43
2022-12-06T06:39:21.132Z,4.43
2022-12-06T06:42:22.708Z,4.41
2022-12-06T06:45:28.569Z,4.34
2022-12-06T06:48:32.798Z,4.36
2022-12-06T06:51:34.354Z,4.48
2022-12-06T06:54:35.929Z,4.28
2022-12-06T06:57:37.526Z,4.45
2022-12-06T07:00:39.109Z,4.51
2022-12-06T07:03:40.718Z,4.41
2022-12-06T07:06:42.281Z,4.39
2022-12-06T07:09:43.911Z,4.53
2022-12-06T07:12:45.504Z,4.46
2022-12-06T07:15:47.106Z,4.53
2022-12-06T07:18:48.770Z,4.49
2022-12-06T07:21:50.901Z,4.40
2022-12-06T07:24:52.711Z,4.57
2022-12-06T07:27:54.351Z,4.57
2022-12-06T07:30:56.250Z,4.51
2022-12-06T07:34:00.320Z,4.51
2022-12-06T07:37:02.319Z,4.63
2022-12-06T07:40:04.184Z,4.58
2022-12-06T07:43:31.829Z,4.60
2022-12-06T07:46:33.506Z,4.59
2022-12-06T07:49:35.128Z,4.52
2022-12-06T07:52:37.298Z,4.51
2022-12-06T07:55:39.569Z,4.59
2022-12-06T07:58:41.494Z,4.63
2022-12-06T08:01:43.479Z,4.55
2022-12-06T08:04:45.225Z,4.59
2022-12-06T08:07:47.761Z,4.71
2022-12-06T08:10:49.430Z,4.58
2022-12-06T08:13:51.346Z,4.50
2022-12-06T08:16:52.916Z,4.45
2022-12-06T08:19:54.647Z,4.57
2022-12-06T08:22:56.260Z,4.30
2022-12-06T08:26:03.223Z,4.50
2022-12-06T08:29:04.872Z,4.34
2022-12-06T08:32:06.481Z,4.30
2022-12-06T08:35:08.693Z,4.13
2022-12-06T08:38:10.257Z,4.30
2022-12-06T08:41:31.257Z,4.23
2022-12-06T08:44:33.088Z,4.50
2022-12-06T08:47:34.657Z,4.36
2022-12-06T08:50:38.628Z,4.43
2022-12-06T08:53:40.225Z,4.26
2022-12-06T08:56:42.170Z,4.44
2022-12-06T08:59:43.739Z,4.36
2022-12-06T09:02:45.333Z,4.26
2022-12-06T09:05:46.889Z,4.33
2022-12-06T09:08:49.381Z,4.34
2022-12-06T09:11:51.017Z,4.23
2022-12-06T09:14:52.590Z,4.41
2022-12-06T09:17:54.151Z,4.54
2022-12-06T09:20:55.787Z,4.66
2022-12-06T09:23:59.213Z,5.00
2022-12-06T09:27:00.922Z,5.05
2022-12-06T09:30:03.063Z,5.07
2022-12-06T09:33:04.959Z,5.60
2022-12-06T09:36:13.595Z,5.53
2022-12-06T09:39:33.510Z,5.53
2022-12-06T09:42:50.098Z,5.79
2022-12-06T09:46:21.095Z,5.42
2022-12-06T09:49:32.112Z,5.38
2022-12-06T09:52:52.621Z,5.32
2022-12-06T09:55:54.437Z,5.40
2022-12-06T09:59:19.943Z,5.43
2022-12-06T10:02:51.945Z,5.57
2022-12-06T10:06:02.973Z,5.69
2022-12-06T10:09:23.089Z,5.91
2022-12-06T10:12:30.720Z,5.56
2022-12-06T10:15:32.382Z,5.55
2022-12-06T10:18:42.973Z,5.47
2022-12-06T10:22:09.004Z,5.27
2022-12-06T10:25:13.605Z,5.37
2022-12-06T10:28:48.935Z,5.38
2022-12-06T10:32:07.899Z,5.50
2022-12-06T10:35:36.587Z,5.31
2022-12-06T10:38:53.703Z,5.20
2022-12-06T10:42:03.723Z,5.20
2022-12-06T10:45:51.675Z,5.05
2022-12-06T10:49:04.881Z,5.01
2022-12-06T10:52:15.515Z,5.07
2022-12-06T10:55:34.785Z,4.85
2022-12-06T10:59:03.787Z,4.90
2022-12-06T11:02:31.406Z,4.87
2022-12-06T11:06:16.539Z,5.38
2022-12-06T11:09:40.796Z,5.89
2022-12-06T11:12:43.486Z,6.04
2022-12-06T11:16:20.562Z,6.20
2022-12-06T11:19:38.895Z,6.13
2022-12-06T11:23:14.513Z,6.41
2022-12-06T11:26:28.103Z,6.82
2022-12-06T11:29:30.917Z,6.50
2022-12-06T11:32:32.584Z,6.28
2022-12-06T11:35:34.228Z,6.66
2022-12-06T11:38:39.594Z,6.71
2022-12-06T11:41:43.783Z,6.81
2022-12-06T11:44:54.454Z,6.78
2022-12-06T11:47:57.631Z,6.74
2022-12-06T11:50:59.284Z,6.80
2022-12-06T11:54:06.684Z,6.82
2022-12-06T11:57:22.812Z,6.82
2022-12-06T12:00:25.988Z,6.86
2022-12-06T12:03:34.177Z,7.06
2022-12-06T12:06:36.954Z,7.17
2022-12-06T12:09:52.866Z,7.14
2022-12-06T12:13:13.172Z,7.20
2022-12-06T12:16:25.371Z,7.56
2022-12-06T12:19:33.184Z,7.74
2022-12-06T12:22:38.883Z,7.56
2022-12-06T12:25:43.886Z,7.46
2022-12-06T12:29:01.844Z,7.46
2022-12-06T12:32:10.449Z,7.12
2022-12-06T12:35:21.230Z,7.00
2022-12-06T12:38:27.576Z,7.15
2022-12-06T12:41:34.375Z,7.18
2022-12-06T12:44:39.724Z,7.31
2022-12-06T12:48:15.399Z,7.47
2022-12-06T12:51:32.411Z,7.42
2022-12-06T12:54:39.487Z,7.18
2022-12-06T12:57:43.554Z,7.01
2022-12-06T13:00:49.343Z,7.31
2022-12-06T13:04:31.943Z,7.59
2022-12-06T13:07:35.803Z,7.53
2022-12-06T13:10:39.509Z,7.55
2022-12-06T13:13:45.754Z,7.15
2022-12-06T13:16:52.009Z,7.07
2022-12-06T13:19:54.127Z,6.84
2022-12-06T13:23:01.360Z,6.83
2022-12-06T13:26:16.570Z,6.70
2022-12-06T13:29:23.075Z,6.62
2022-12-06T13:32:32.272Z,6.55
2022-12-06T13:36:05.041Z,6.36
2022-12-06T13:39:32.179Z,6.26
2022-12-06T13:42:36.543Z,6.08
2022-12-06T13:45:49.426Z,6.02
2022-12-06T13:48:56.891Z,5.97
2022-12-06T13:51:58.771Z,5.88
2022-12-06T13:55:26.061Z,5.88
2022-12-06T13:58:27.698Z,5.73
2022-12-06T14:01:47.581Z,5.64
2022-12-06T14:04:49.265Z,5.43
2022-12-06T14:07:58.028Z,5.24
2022-12-06T14:11:26.373Z,5.14
2022-12-06T14:14:28.021Z,5.02
2022-12-06T14:18:01.523Z,4.94
2022-12-06T14:21:02.790Z,4.93
2022-12-06T14:24:04.789Z,4.79
2022-12-06T14:27:21.330Z,4.79
2022-12-06T14:30:26.365Z,4.75
2022-12-06T14:33:28.173Z,4.64
2022-12-06T14:36:33.827Z,4.60
2022-12-06T14:39:35.476Z,4.62
2022-12-06T14:43:09.509Z,4.55
2022-12-06T14:46:14.846Z,4.24
2022-12-06T14:49:39.460Z,4.22
2022-12-06T14:53:05.072Z,3.91
2022-12-06T14:56:21.005Z,3.91
2022-12-06T15:00:03.135Z,3.92
2022-12-06T15:03:13.437Z,3.88
2022-12-06T15:06:20.683Z,3.76
2022-12-06T15:09:22.930Z,3.69
2022-12-06T15:12:46.640Z,3.58
2022-12-06T15:15:49.284Z,3.53
2022-12-06T15:19:00.331Z,3.38
2022-12-06T15:22:04.184Z,3.30
2022-12-06T15:25:06.042Z,3.20
2022-12-06T15:28:07.645Z,3.00
2022-12-06T15:31:35.945Z,3.03
2022-12-06T15:34:37.553Z,2.99
2022-12-06T15:37:40.869Z,2.87
2022-12-06T15:40:49.446Z,3.05
2022-12-06T15:43:52.610Z,2.88
2022-12-06T15:46:55.319Z,2.89
2022-12-06T15:49:58.288Z,2.78
2022-12-06T15:53:00.243Z,2.76
2022-12-06T15:56:01.836Z,2.77
2022-12-06T15:59:03.448Z,2.71
2022-12-06T16:02:14.149Z,2.77
2022-12-06T16:05:17.077Z,2.74
2022-12-06T16:08:18.728Z,2.82
2022-12-06T16:11:23.838Z,2.70
2022-12-06T16:14:25.445Z,2.63
2022-12-06T16:17:27.216Z,2.63
2022-12-06T16:20:31.718Z,2.63
2022-12-06T16:27:14.746Z,2.58
2022-12-06T16:30:16.798Z,2.59
2022-12-06T16:33:20.535Z,2.49
2022-12-06T16:36:30.436Z,2.43
2022-12-06T16:39:34.187Z,2.48
2022-12-06T16:42:36.298Z,2.54
2022-12-06T16:45:41.253Z,2.50
2022-12-06T16:48:43.315Z,2.56
2022-12-06T16:51:45.992Z,2.55
2022-12-06T16:54:48.070Z,2.57
2022-12-06T16:57:51.115Z,2.60
2022-12-06T17:00:53.316Z,2.56
2022-12-06T17:04:05.886Z,2.51
2022-12-06T17:07:07.676Z,2.45
2022-12-06T17:10:10.274Z,2.54
2022-12-06T17:13:12.508Z,2.40
2022-12-06T17:16:14.985Z,2.26
2022-12-06T17:19:19.210Z,2.22
2022-12-06T17:22:22.997Z,2.39
2022-12-06T17:25:26.758Z,2.16
2022-12-06T17:28:28.839Z,2.07
2022-12-06T17:31:31.226Z,1.96
2022-12-06T17:34:33.601Z,1.96
2022-12-06T17:37:35.723Z,1.81
2022-12-06T17:40:38.097Z,1.75
2022-12-06T17:43:40.607Z,1.79
2022-12-06T17:46:43.624Z,1.74
2022-12-06T17:49:46.004Z,1.74
2022-12-06T17:52:48.874Z,1.56
2022-12-06T17:55:51.218Z,1.35
2022-12-06T17:58:54.624Z,1.34
2022-12-06T18:02:17.246Z,1.41
2022-12-06T18:05:19.853Z,1.28
2022-12-06T18:08:21.943Z,1.23
2022-12-06T18:11:25.481Z,1.40
2022-12-06T18:14:28.848Z,1.12
2022-12-06T18:17:31.187Z,1.01
2022-12-06T18:20:33.350Z,1.14
2022-12-06T18:23:40.805Z,1.15
2022-12-06T18:26:51.715Z,1.12
2022-12-06T18:29:54.205Z,1.11
2022-12-06T18:32:56.521Z,0.90
2022-12-06T18:35:59.796Z,1.00
2022-12-06T18:39:08.427Z,0.93
2022-12-06T18:42:14.876Z,0.89
2022-12-06T18:45:19.010Z,0.94
2022-12-06T18:48:22.612Z,0.84
2022-12-06T18:51:30.742Z,0.78
2022-12-06T18:54:33.385Z,0.84
2022-12-06T18:57:40.010Z,0.82
2022-12-06T19:00:45.912Z,0.75
2022-12-06T19:03:49.884Z,0.77
2022-12-06T19:06:53.452Z,0.83
2022-12-06T19:09:55.710Z,0.80
2022-12-06T19:13:05.765Z,0.82
2022-12-06T19:16:09.178Z,0.67
2022-12-06T19:19:25.584Z,0.76
2022-12-06T19:22:28.269Z,0.80
2022-12-06T19:25:33.505Z,0.67
2022-12-06T19:28:40.692Z,0.66
2022-12-06T19:31:45.179Z,0.68
2022-12-06T19:34:47.898Z,0.77
2022-12-06T19:37:50.196Z,0.65
2022-12-06T19:40:54.387Z,0.53
2022-12-06T19:44:15.580Z,0.64
2022-12-06T19:47:18.931Z,0.51
2022-12-06T19:50:21.491Z,0.24
2022-12-06T19:53:27.003Z,0.09
2022-12-06T19:56:29.906Z,-0.04
2022-12-06T19:59:35.346Z,-0.16
2022-12-06T20:02:38.068Z,-0.04
2022-12-06T20:05:40.684Z,-0.07
2022-12-06T20:12:06.953Z,-0.22
2022-12-06T20:15:12.336Z,-0.03
2022-12-06T20:18:14.393Z,-0.04
2022-12-06T20:21:16.801Z,0.02
2022-12-06T20:24:24.211Z,0.04
2022-12-06T20:27:46.688Z,-0.05
2022-12-06T20:30:49.460Z,-0.04
2022-12-06T20:33:52.396Z,0.03
2022-12-06T20:36:54.807Z,0.01
2022-12-06T20:39:57.701Z,0.00
2022-12-06T20:43:00.172Z,0.06
2022-12-06T20:46:14.540Z,-0.11
2022-12-06T20:49:18.060Z,-0.20
2022-12-06T20:52:20.347Z,-0.03
2022-12-06T20:55:23.067Z,-0.05
2022-12-06T20:58:26.973Z,0.02
2022-12-06T21:01:32.941Z,-0.08
2022-12-06T21:04:34.849Z,-0.17
2022-12-06T21:07:36.743Z,-0.12
2022-12-06T21:10:54.028Z,-0.29
2022-12-06T21:14:01.164Z,-0.37
2022-12-06T21:17:02.964Z,-0.19
2022-12-06T21:20:05.679Z,-0.07
2022-12-06T21:23:08.142Z,-0.15
2022-12-06T21:26:09.986Z,-0.15
2022-12-06T21:29:21.670Z,-0.13
2022-12-06T21:32:25.914Z,-0.03
2022-12-06T21:35:27.749Z,-0.15
2022-12-06T21:38:30.416Z,-0.19
2022-12-06T21:41:32.518Z,-0.17
2022-12-06T21:44:34.125Z,-0.22
2022-12-06T21:47:35.745Z,0.01
2022-12-06T21:50:37.409Z,0.09
2022-12-06T21:53:39.077Z,0.12
2022-12-06T21:56:40.913Z,0.06
2022-12-06T21:59:42.562Z,-0.03
2022-12-06T22:02:49.500Z,-0.10
2022-12-06T22:05:51.128Z,-0.10
2022-12-06T22:08:58.409Z,-0.06
2022-12-06T22:12:00.047Z,-0.17
2022-12-06T22:15:01.771Z,-0.13
2022-12-06T22:18:03.649Z,-0.01
2022-12-06T22:21:08.541Z,-0.01
2022-12-06T22:24:10.358Z,-0.05
2022-12-06T22:27:11.947Z,-0.10
2022-12-06T22:30:13.722Z,-0.36
2022-12-06T22:33:15.663Z,-0.37
2022-12-06T22:36:18.259Z,-0.39
2022-12-06T22:39:20.043Z,-0.47
2022-12-06T22:42:21.629Z,-0.47
2022-12-06T22:45:23.764Z,-0.34
2022-12-06T22:48:25.407Z,-0.42
2022-12-06T22:51:32.701Z,-0.52
2022-12-06T22:54:34.427Z,-0.34
2022-12-06T22:57:36.081Z,-0.42
2022-12-06T23:00:37.689Z,-0.27
2022-12-06T23:03:39.622Z,-0.34
2022-12-06T23:06:41.369Z,-0.39
2022-12-06T23:09:43.069Z,-0.29
2022-12-06T23:12:44.700Z,-0.29
2022-12-06T23:16:04.081Z,-0.46
2022-12-06T23:19:05.894Z,-0.38
2022-12-06T23:22:07.493Z,-0.25
2022-12-06T23:25:09.225Z,-0.29
2022-12-06T23:28:10.860Z,-0.21
2022-12-06T23:31:34.169Z,-0.15
2022-12-06T23:34:35.880Z,-0.33
2022-12-06T23:37:37.475Z,-0.27
2022-12-06T23:40:39.097Z,-0.48
2022-12-06T23:43:41.541Z,-0.55
2022-12-06T23:46:44.026Z,-0.56
2022-12-06T23:49:45.724Z,-0.63
2022-12-06T23:52:47.311Z,-0.56
2022-12-06T23:55:49.029Z,-0.70
2022-12-06T23:58:51.346Z,-0.50
